createdAt,value
2023-03-29T00:00:13.451Z,15.86
2023-03-29T00:01:34.779Z,15.83
2023-03-29T00:02:14.446Z,15.84
2023-03-29T00:03:13.550Z,15.82
2023-03-29T00:04:13.594Z,15.83
2023-03-29T00:05:13.408Z,15.86
2023-03-29T00:06:13.416Z,15.84
2023-03-29T00:07:13.405Z,15.90
2023-03-29T00:08:13.386Z,15.90
2023-03-29T00:09:13.394Z,15.83
2023-03-29T00:10:13.407Z,15.86
2023-03-29T00:11:13.390Z,15.92
2023-03-29T00:12:13.370Z,15.86
2023-03-29T00:13:13.385Z,15.84
2023-03-29T00:14:13.362Z,15.83
2023-03-29T00:15:13.354Z,15.93
2023-03-29T00:16:13.340Z,15.92
2023-03-29T00:17:13.472Z,15.93
2023-03-29T00:18:13.348Z,15.88
2023-03-29T00:19:13.342Z,15.93
2023-03-29T00:20:13.338Z,15.89
2023-03-29T00:21:13.328Z,15.87
2023-03-29T00:22:13.316Z,15.84
2023-03-29T00:23:13.368Z,15.89
2023-03-29T00:24:13.479Z,15.92
2023-03-29T00:25:13.487Z,15.83
2023-03-29T00:26:13.500Z,15.88
2023-03-29T00:27:13.508Z,15.98
2023-03-29T00:28:13.523Z,15.93
2023-03-29T00:29:13.506Z,15.93
2023-03-29T00:30:13.631Z,15.90
2023-03-29T00:31:13.760Z,15.90
2023-03-29T00:32:13.715Z,15.93
2023-03-29T00:33:13.669Z,15.89
2023-03-29T00:34:13.684Z,15.98
2023-03-29T00:35:13.704Z,15.92
2023-03-29T00:36:13.707Z,15.93
2023-03-29T00:37:13.713Z,15.84
2023-03-29T00:38:13.742Z,15.93
2023-03-29T00:39:13.723Z,15.92
2023-03-29T00:40:13.846Z,15.92
2023-03-29T00:41:13.857Z,15.95
2023-03-29T00:42:13.867Z,15.95
2023-03-29T00:43:13.860Z,15.97
2023-03-29T00:44:13.877Z,15.95
2023-03-29T00:45:13.893Z,15.90
2023-03-29T00:46:13.944Z,15.93
2023-03-29T00:47:13.931Z,15.95
2023-03-29T00:48:13.973Z,15.93
2023-03-29T00:49:13.970Z,15.89
2023-03-29T00:50:13.945Z,15.89
2023-03-29T00:51:13.977Z,15.89
2023-03-29T00:52:14.014Z,15.95
2023-03-29T00:53:14.013Z,15.92
2023-03-29T00:54:14.024Z,15.90
2023-03-29T00:55:14.020Z,15.95
2023-03-29T00:56:14.098Z,15.87
2023-03-29T00:57:14.116Z,15.93
2023-03-29T00:58:14.090Z,15.97
2023-03-29T00:59:14.101Z,15.98
2023-03-29T01:00:14.200Z,15.98
2023-03-29T01:01:14.297Z,15.93
2023-03-29T01:02:14.402Z,16.01
2023-03-29T01:03:14.467Z,15.92
2023-03-29T01:04:14.275Z,15.98
2023-03-29T01:05:14.317Z,15.99
2023-03-29T01:06:14.337Z,16.00
2023-03-29T01:07:14.425Z,15.98
2023-03-29T01:08:14.366Z,15.98
2023-03-29T01:09:14.371Z,16.00
2023-03-29T01:10:14.471Z,16.01
2023-03-29T01:11:14.466Z,16.06
2023-03-29T01:12:14.484Z,16.03
2023-03-29T01:13:14.472Z,15.99
2023-03-29T01:14:14.495Z,16.03
2023-03-29T01:15:14.511Z,16.05
2023-03-29T01:16:14.620Z,16.04
2023-03-29T01:17:14.624Z,16.01
2023-03-29T01:18:14.635Z,15.99
2023-03-29T01:19:14.628Z,16.00
2023-03-29T01:20:14.655Z,16.04
2023-03-29T01:21:14.680Z,16.03
2023-03-29T01:22:14.673Z,16.02
2023-03-29T01:23:14.694Z,16.07
2023-03-29T01:24:14.701Z,16.10
2023-03-29T01:25:14.707Z,16.04
2023-03-29T01:26:14.734Z,16.10
2023-03-29T01:27:14.792Z,16.13
2023-03-29T01:28:14.789Z,16.04
2023-03-29T01:29:14.795Z,16.09
2023-03-29T01:30:14.891Z,16.07
2023-03-29T01:31:14.848Z,16.01
2023-03-29T01:32:14.854Z,16.07
2023-03-29T01:33:14.866Z,16.09
2023-03-29T01:34:14.863Z,16.10
2023-03-29T01:35:14.901Z,16.11
2023-03-29T01:36:14.934Z,16.07
2023-03-29T01:37:14.924Z,16.10
2023-03-29T01:38:14.958Z,16.13
2023-03-29T01:39:14.967Z,16.07
2023-03-29T01:40:14.975Z,16.15
2023-03-29T01:41:14.985Z,16.15
2023-03-29T01:42:14.990Z,16.18
2023-03-29T01:43:15.046Z,16.15
2023-03-29T01:44:14.996Z,16.09
2023-03-29T01:45:15.003Z,16.11
2023-03-29T01:46:15.126Z,16.16
2023-03-29T01:47:15.137Z,16.21
2023-03-29T01:48:15.170Z,16.16
2023-03-29T01:49:15.156Z,16.16
2023-03-29T01:50:15.135Z,16.15
2023-03-29T01:51:15.149Z,16.13
2023-03-29T01:52:15.273Z,16.22
2023-03-29T01:53:15.275Z,16.16
2023-03-29T01:54:15.282Z,16.19
2023-03-29T01:55:15.273Z,16.22
2023-03-29T01:56:15.307Z,16.18
2023-03-29T01:57:15.407Z,16.22
2023-03-29T01:58:15.334Z,16.21
2023-03-29T01:59:15.335Z,16.16
2023-03-29T02:00:15.378Z,16.18
2023-03-29T02:01:15.433Z,16.22
2023-03-29T02:02:15.470Z,16.28
2023-03-29T02:03:15.516Z,16.26
2023-03-29T02:04:15.408Z,16.24
2023-03-29T02:05:15.413Z,16.33
2023-03-29T02:06:15.441Z,16.25
2023-03-29T02:07:15.439Z,16.28
2023-03-29T02:08:15.489Z,16.27
2023-03-29T02:09:15.486Z,16.24
2023-03-29T02:10:15.462Z,16.30
2023-03-29T02:11:15.577Z,16.33
2023-03-29T02:12:15.690Z,16.24
2023-03-29T02:13:15.675Z,16.28
2023-03-29T02:14:15.729Z,16.34
2023-03-29T02:15:15.698Z,16.33
2023-03-29T02:16:15.769Z,16.36
2023-03-29T02:17:15.743Z,16.37
2023-03-29T02:18:15.776Z,16.36
2023-03-29T02:19:15.768Z,16.33
2023-03-29T02:20:15.797Z,16.36
2023-03-29T02:21:15.807Z,16.39
2023-03-29T02:22:15.808Z,16.36
2023-03-29T02:23:15.857Z,16.42
2023-03-29T02:24:15.862Z,16.44
2023-03-29T02:25:15.852Z,16.41
2023-03-29T02:26:15.882Z,16.47
2023-03-29T02:27:15.912Z,16.49
2023-03-29T02:28:16.002Z,16.45
2023-03-29T02:29:16.014Z,16.44
2023-03-29T02:30:16.052Z,16.45
2023-03-29T02:31:16.081Z,16.47
2023-03-29T02:32:16.080Z,16.42
2023-03-29T02:33:16.072Z,16.47
2023-03-29T02:34:16.148Z,16.47
2023-03-29T02:35:16.168Z,16.49
2023-03-29T02:36:16.200Z,16.48
2023-03-29T02:37:16.193Z,16.50
2023-03-29T02:38:16.207Z,16.48
2023-03-29T02:39:16.269Z,16.57
2023-03-29T02:40:16.349Z,16.53
2023-03-29T02:41:16.304Z,16.57
2023-03-29T02:42:16.310Z,16.51
2023-03-29T02:43:16.321Z,16.56
2023-03-29T02:44:16.342Z,16.54
2023-03-29T02:45:16.374Z,16.54
2023-03-29T02:46:16.403Z,16.62
2023-03-29T02:47:16.397Z,16.62
2023-03-29T02:48:16.414Z,16.62
2023-03-29T02:49:16.451Z,16.65
2023-03-29T02:50:16.489Z,16.59
2023-03-29T02:51:18.616Z,16.60
2023-03-29T02:52:16.472Z,16.65
2023-03-29T02:53:16.462Z,16.68
2023-03-29T02:54:16.459Z,16.68
2023-03-29T02:55:16.439Z,16.66
2023-03-29T02:56:16.445Z,16.65
2023-03-29T02:57:16.521Z,16.71
2023-03-29T02:58:16.443Z,16.69
2023-03-29T02:59:16.437Z,16.77
2023-03-29T03:00:16.411Z,16.78
2023-03-29T03:01:16.405Z,16.68
2023-03-29T03:02:16.479Z,16.80
2023-03-29T03:03:16.530Z,16.72
2023-03-29T03:04:16.436Z,16.76
2023-03-29T03:05:16.389Z,16.77
2023-03-29T03:06:16.386Z,16.74
2023-03-29T03:07:16.375Z,16.75
2023-03-29T03:08:16.400Z,16.77
2023-03-29T03:09:16.362Z,16.77
2023-03-29T03:10:16.357Z,16.77
2023-03-29T03:11:16.339Z,16.85
2023-03-29T03:12:16.354Z,16.82
2023-03-29T03:13:16.333Z,16.80
2023-03-29T03:14:16.362Z,16.83
2023-03-29T03:15:16.327Z,16.83
2023-03-29T03:16:16.318Z,16.85
2023-03-29T03:17:16.305Z,16.86
2023-03-29T03:18:16.327Z,16.85
2023-03-29T03:19:16.333Z,16.82
2023-03-29T03:20:16.272Z,16.87
2023-03-29T03:21:16.281Z,16.88
2023-03-29T03:22:16.273Z,16.89
2023-03-29T03:23:16.283Z,16.83
2023-03-29T03:24:16.253Z,16.88
2023-03-29T03:25:16.242Z,16.94
2023-03-29T03:26:16.265Z,16.91
2023-03-29T03:27:16.243Z,16.89
2023-03-29T03:28:16.228Z,16.97
2023-03-29T03:29:16.213Z,16.98
2023-03-29T03:30:16.210Z,16.94
2023-03-29T03:31:16.233Z,16.92
2023-03-29T03:32:16.196Z,16.95
2023-03-29T03:33:16.239Z,16.94
2023-03-29T03:34:16.194Z,16.96
2023-03-29T03:35:16.190Z,16.97
2023-03-29T03:36:16.197Z,16.98
2023-03-29T03:37:16.208Z,16.98
2023-03-29T03:38:16.166Z,16.98
2023-03-29T03:39:16.181Z,17.00
2023-03-29T03:40:16.136Z,16.98
2023-03-29T03:41:16.128Z,17.03
2023-03-29T03:42:16.131Z,17.00
2023-03-29T03:43:16.143Z,17.04
2023-03-29T03:44:16.135Z,17.00
2023-03-29T03:45:16.122Z,16.98
2023-03-29T03:46:16.162Z,17.06
2023-03-29T03:47:16.102Z,17.08
2023-03-29T03:48:16.075Z,17.03
2023-03-29T03:49:16.096Z,17.04
2023-03-29T03:50:16.109Z,17.03
2023-03-29T03:51:16.067Z,17.09
2023-03-29T03:52:16.058Z,17.08
2023-03-29T03:53:16.064Z,17.13
2023-03-29T03:54:16.042Z,17.08
2023-03-29T03:55:16.053Z,17.04
2023-03-29T03:56:16.038Z,17.12
2023-03-29T03:57:16.096Z,17.11
2023-03-29T03:58:16.016Z,17.12
2023-03-29T03:59:16.025Z,17.14
2023-03-29T04:00:16.024Z,17.09
2023-03-29T04:01:16.001Z,17.12
2023-03-29T04:02:16.013Z,17.12
2023-03-29T04:03:16.082Z,17.09
2023-03-29T04:04:16.008Z,17.17
2023-03-29T04:05:15.986Z,17.13
2023-03-29T04:06:15.976Z,17.15
2023-03-29T04:07:15.974Z,17.12
2023-03-29T04:08:15.965Z,17.15
2023-03-29T04:09:15.948Z,17.16
2023-03-29T04:10:15.990Z,17.15
2023-03-29T04:11:15.956Z,17.18
2023-03-29T04:12:15.924Z,17.15
2023-03-29T04:13:15.918Z,17.18
2023-03-29T04:14:15.927Z,17.17
2023-03-29T04:15:15.916Z,17.14
2023-03-29T04:16:15.947Z,17.18
2023-03-29T04:17:15.895Z,17.21
2023-03-29T04:18:16.141Z,17.17
2023-03-29T04:19:15.891Z,17.17
2023-03-29T04:20:15.876Z,17.20
2023-03-29T04:21:15.880Z,17.24
2023-03-29T04:22:15.875Z,17.18
2023-03-29T04:23:15.863Z,17.23
2023-03-29T04:24:15.855Z,17.21
2023-03-29T04:25:15.850Z,17.27
2023-03-29T04:26:15.881Z,17.23
2023-03-29T04:27:15.835Z,17.24
2023-03-29T04:28:15.921Z,17.29
2023-03-29T04:29:15.934Z,17.24
2023-03-29T04:30:15.960Z,17.26
2023-03-29T04:31:15.937Z,17.21
2023-03-29T04:32:15.942Z,17.27
2023-03-29T04:33:15.959Z,17.27
2023-03-29T04:34:15.996Z,17.30
2023-03-29T04:35:16.006Z,17.26
2023-03-29T04:36:16.134Z,17.27
2023-03-29T04:37:16.020Z,17.26
2023-03-29T04:38:16.031Z,17.24
2023-03-29T04:39:16.043Z,17.34
2023-03-29T04:40:16.047Z,17.30
2023-03-29T04:41:16.064Z,17.30
2023-03-29T04:42:16.074Z,17.27
2023-03-29T04:43:16.105Z,17.30
2023-03-29T04:44:16.187Z,17.30
2023-03-29T04:45:16.198Z,17.33
2023-03-29T04:46:16.220Z,17.35
2023-03-29T04:47:16.215Z,17.29
2023-03-29T04:48:16.237Z,17.35
2023-03-29T04:49:16.329Z,17.35
2023-03-29T04:50:16.349Z,17.32
2023-03-29T04:51:16.354Z,17.33
2023-03-29T04:52:16.361Z,17.33
2023-03-29T04:53:16.414Z,17.34
2023-03-29T04:54:16.397Z,17.36
2023-03-29T04:55:16.489Z,17.33
2023-03-29T04:56:16.498Z,17.33
2023-03-29T04:57:16.539Z,17.33
2023-03-29T04:58:16.522Z,17.32
2023-03-29T04:59:16.543Z,17.33
2023-03-29T05:00:16.544Z,17.38
2023-03-29T05:01:16.739Z,17.35
2023-03-29T05:02:16.667Z,17.38
2023-03-29T05:03:50.644Z,17.36
2023-03-29T05:04:50.532Z,17.38
2023-03-29T05:05:50.501Z,17.44
2023-03-29T05:06:50.485Z,17.33
2023-03-29T05:07:50.483Z,17.36
2023-03-29T05:08:50.511Z,17.41
2023-03-29T05:09:50.468Z,17.36
2023-03-29T05:10:50.446Z,17.38
2023-03-29T05:11:50.457Z,17.45
2023-03-29T05:12:50.439Z,17.40
2023-03-29T05:13:50.467Z,17.35
2023-03-29T05:14:50.468Z,17.42
2023-03-29T05:15:50.447Z,17.42
2023-03-29T05:16:50.422Z,17.41
2023-03-29T05:17:50.451Z,17.45
2023-03-29T05:18:50.427Z,17.41
2023-03-29T05:19:50.445Z,17.42
2023-03-29T05:20:50.452Z,17.42
2023-03-29T05:21:50.489Z,17.42
2023-03-29T05:22:50.374Z,17.42
2023-03-29T05:23:50.388Z,17.42
2023-03-29T05:24:50.438Z,17.41
2023-03-29T05:25:50.392Z,17.44
2023-03-29T05:26:50.350Z,17.43
2023-03-29T05:27:50.362Z,17.47
2023-03-29T05:28:50.379Z,17.52
2023-03-29T05:29:50.361Z,17.67
2023-03-29T05:30:50.350Z,17.75
2023-03-29T05:31:50.408Z,18.26
2023-03-29T05:32:50.363Z,17.99
2023-03-29T05:33:50.327Z,18.08
2023-03-29T05:34:50.322Z,17.98
2023-03-29T05:35:50.323Z,18.36
2023-03-29T05:36:50.318Z,18.42
2023-03-29T05:37:50.341Z,18.28
2023-03-29T05:38:50.332Z,18.24
2023-03-29T05:39:50.255Z,18.38
2023-03-29T05:40:50.253Z,18.83
2023-03-29T05:41:50.257Z,19.06
2023-03-29T05:42:50.281Z,18.96
2023-03-29T05:43:50.245Z,19.01
2023-03-29T05:44:51.567Z,19.08
2023-03-29T05:45:50.437Z,19.22
2023-03-29T05:46:50.452Z,19.50
2023-03-29T05:47:50.516Z,19.65
2023-03-29T05:48:50.537Z,19.82
2023-03-29T05:49:50.594Z,19.73
2023-03-29T05:50:50.685Z,19.51
2023-03-29T05:51:50.696Z,19.12
2023-03-29T05:52:50.771Z,19.14
2023-03-29T05:53:50.813Z,18.94
2023-03-29T05:54:50.879Z,19.13
2023-03-29T05:55:51.024Z,19.10
2023-03-29T05:56:50.994Z,19.15
2023-03-29T05:57:51.008Z,19.19
2023-03-29T05:58:52.946Z,19.14
2023-03-29T05:59:51.056Z,19.20
2023-03-29T06:00:51.051Z,19.10
2023-03-29T06:01:51.022Z,19.22
2023-03-29T06:02:51.144Z,19.57
2023-03-29T06:03:51.185Z,19.43
2023-03-29T06:04:51.067Z,19.28
2023-03-29T06:05:51.014Z,19.26
2023-03-29T06:06:51.001Z,19.42
2023-03-29T06:07:51.048Z,19.40
2023-03-29T06:08:51.005Z,19.58
2023-03-29T06:09:50.974Z,19.83
2023-03-29T06:10:50.966Z,19.91
2023-03-29T06:11:50.974Z,20.05
2023-03-29T06:12:51.001Z,20.09
2023-03-29T06:13:50.942Z,20.17
2023-03-29T06:14:50.944Z,20.19
2023-03-29T06:15:50.954Z,20.34
2023-03-29T06:16:50.967Z,20.42
2023-03-29T06:17:50.988Z,20.40
2023-03-29T06:18:50.905Z,20.45
2023-03-29T06:19:50.886Z,20.50
2023-03-29T06:20:50.907Z,20.50
2023-03-29T06:21:50.892Z,20.50
2023-03-29T06:22:50.867Z,20.58
2023-03-29T06:23:50.861Z,20.67
2023-03-29T06:24:50.860Z,20.65
2023-03-29T06:25:51.024Z,20.69
2023-03-29T06:26:50.857Z,20.63
2023-03-29T06:27:50.855Z,20.68
2023-03-29T06:28:52.273Z,20.64
2023-03-29T06:29:50.844Z,20.75
2023-03-29T06:30:50.861Z,21.04
2023-03-29T06:31:50.876Z,20.92
2023-03-29T06:32:50.852Z,20.91
2023-03-29T06:33:50.813Z,21.07
2023-03-29T06:34:50.865Z,20.89
2023-03-29T06:35:50.851Z,20.92
2023-03-29T06:36:50.818Z,20.77
2023-03-29T06:37:50.764Z,20.79
2023-03-29T06:38:50.771Z,20.79
2023-03-29T06:39:52.832Z,20.76
2023-03-29T06:40:50.892Z,20.80
2023-03-29T06:41:50.948Z,20.79
2023-03-29T06:42:50.953Z,20.81
2023-03-29T06:43:50.984Z,20.90
2023-03-29T06:44:50.994Z,20.94
2023-03-29T06:45:51.023Z,20.98
2023-03-29T06:46:52.135Z,20.99
2023-03-29T06:47:51.574Z,21.01
2023-03-29T06:48:51.091Z,21.16
2023-03-29T06:49:51.108Z,21.09
2023-03-29T06:50:51.137Z,21.14
2023-03-29T06:51:51.175Z,21.15
2023-03-29T06:52:51.563Z,21.10
2023-03-29T06:53:51.205Z,21.07
2023-03-29T06:54:51.581Z,21.06
2023-03-29T06:55:51.204Z,21.13
2023-03-29T06:56:51.273Z,21.16
2023-03-29T06:57:51.558Z,21.20
2023-03-29T06:58:51.252Z,21.21
2023-03-29T06:59:51.297Z,21.20
2023-03-29T07:00:51.280Z,21.26
2023-03-29T07:01:51.342Z,21.24
2023-03-29T07:02:51.569Z,21.23
2023-03-29T07:03:51.364Z,21.23
2023-03-29T07:04:51.431Z,21.20
2023-03-29T07:05:51.366Z,21.20
2023-03-29T07:06:51.415Z,21.26
2023-03-29T07:07:51.588Z,21.20
2023-03-29T07:08:51.480Z,21.18
2023-03-29T07:09:51.458Z,21.18
2023-03-29T07:10:51.481Z,21.26
2023-03-29T07:11:51.528Z,21.15
2023-03-29T07:12:51.525Z,21.28
2023-03-29T07:13:51.534Z,21.32
2023-03-29T07:14:51.609Z,21.23
2023-03-29T07:15:51.627Z,21.20
2023-03-29T07:16:51.642Z,21.19
2023-03-29T07:17:51.649Z,21.23
2023-03-29T07:18:51.627Z,21.17
2023-03-29T07:19:51.659Z,21.19
2023-03-29T07:20:51.674Z,21.15
2023-03-29T07:21:52.070Z,21.25
2023-03-29T07:22:51.712Z,21.23
2023-03-29T07:23:51.708Z,21.47
2023-03-29T07:24:51.702Z,21.40
2023-03-29T07:25:51.729Z,21.21
2023-03-29T07:27:03.222Z,21.21
2023-03-29T07:27:53.065Z,21.12
2023-03-29T07:28:51.737Z,20.88
2023-03-29T07:29:51.741Z,21.00
2023-03-29T07:30:51.724Z,21.23
2023-03-29T07:31:51.708Z,21.06
2023-03-29T07:32:52.085Z,21.00
2023-03-29T07:33:51.743Z,20.96
2023-03-29T07:34:51.695Z,20.91
2023-03-29T07:35:51.727Z,20.88
2023-03-29T07:36:51.706Z,20.91
2023-03-29T07:37:52.072Z,20.82
2023-03-29T07:38:52.932Z,20.82
2023-03-29T07:39:51.696Z,20.73
2023-03-29T07:40:51.651Z,20.89
2023-03-29T07:41:51.668Z,20.74
2023-03-29T07:42:51.671Z,20.71
2023-03-29T07:43:51.660Z,20.79
2023-03-29T07:44:52.085Z,20.71
2023-03-29T07:45:51.686Z,20.74
2023-03-29T07:46:51.621Z,20.62
2023-03-29T07:47:51.689Z,20.56
2023-03-29T07:48:51.621Z,20.42
2023-03-29T07:49:52.072Z,20.27
2023-03-29T07:50:51.601Z,20.25
2023-03-29T07:51:51.586Z,20.25
2023-03-29T07:52:52.095Z,20.25
2023-03-29T07:53:51.568Z,19.96
2023-03-29T07:54:52.061Z,19.82
2023-03-29T07:55:51.550Z,19.88
2023-03-29T07:56:51.574Z,19.87
2023-03-29T07:57:51.574Z,19.85
2023-03-29T07:58:51.546Z,19.61
2023-03-29T07:59:51.559Z,19.65
2023-03-29T08:00:51.560Z,19.64
2023-03-29T08:01:51.526Z,19.70
2023-03-29T08:02:51.539Z,19.62
2023-03-29T08:03:51.574Z,19.61
2023-03-29T08:04:51.502Z,19.65
2023-03-29T08:05:51.489Z,19.56
2023-03-29T08:06:51.509Z,19.50
2023-03-29T08:07:51.461Z,19.48
2023-03-29T08:08:51.516Z,19.50
2023-03-29T08:09:51.457Z,19.45
2023-03-29T08:10:51.462Z,19.51
2023-03-29T08:11:51.455Z,19.60
2023-03-29T08:12:51.428Z,19.56
2023-03-29T08:13:51.427Z,19.50
2023-03-29T08:14:51.574Z,19.57
2023-03-29T08:15:51.417Z,19.71
2023-03-29T08:16:51.433Z,19.66
2023-03-29T08:17:51.445Z,19.65
2023-03-29T08:18:51.395Z,19.60
2023-03-29T08:19:51.818Z,19.58
2023-03-29T08:20:51.375Z,19.50
2023-03-29T08:21:51.345Z,19.50
2023-03-29T08:22:51.354Z,19.56
2023-03-29T08:23:51.364Z,19.58
2023-03-29T08:24:51.599Z,19.57
2023-03-29T08:25:51.337Z,19.59
2023-03-29T08:26:51.396Z,19.65
2023-03-29T08:27:51.607Z,19.62
2023-03-29T08:28:51.344Z,19.58
2023-03-29T08:29:51.311Z,19.58
2023-03-29T08:30:51.294Z,19.59
2023-03-29T08:31:51.295Z,19.56
2023-03-29T08:32:54.450Z,19.61
2023-03-29T08:33:51.283Z,19.61
2023-03-29T08:34:51.257Z,19.56
2023-03-29T08:35:51.334Z,19.64
2023-03-29T08:36:52.100Z,19.58
2023-03-29T08:37:51.644Z,19.74
2023-03-29T08:38:51.231Z,19.74
2023-03-29T08:39:51.226Z,19.87
2023-03-29T08:40:51.212Z,20.07
2023-03-29T08:41:51.236Z,20.20
2023-03-29T08:42:52.107Z,20.25
2023-03-29T08:43:51.216Z,20.39
2023-03-29T08:44:51.192Z,20.42
2023-03-29T08:45:51.349Z,20.54
2023-03-29T08:46:51.244Z,20.59
2023-03-29T08:47:51.238Z,20.64
2023-03-29T08:48:51.137Z,20.70
2023-03-29T08:49:51.145Z,20.74
2023-03-29T08:50:51.135Z,20.79
2023-03-29T08:51:51.154Z,20.76
2023-03-29T08:52:51.171Z,20.86
2023-03-29T08:53:51.112Z,20.87
2023-03-29T08:54:51.098Z,20.94
2023-03-29T08:55:51.102Z,20.89
2023-03-29T08:56:51.223Z,21.01
2023-03-29T08:57:51.100Z,21.04
2023-03-29T08:58:51.613Z,21.01
2023-03-29T08:59:51.069Z,21.10
2023-03-29T09:00:51.076Z,21.16
2023-03-29T09:01:51.061Z,21.19
2023-03-29T09:02:51.143Z,21.16
2023-03-29T09:03:51.175Z,21.20
2023-03-29T09:04:51.067Z,21.21
2023-03-29T09:05:51.023Z,21.21
2023-03-29T09:06:51.022Z,21.24
2023-03-29T09:07:51.029Z,21.29
2023-03-29T09:08:51.108Z,21.27
2023-03-29T09:09:51.001Z,21.28
2023-03-29T09:10:51.000Z,21.38
2023-03-29T09:11:50.984Z,21.34
2023-03-29T09:12:51.041Z,21.35
2023-03-29T09:13:51.002Z,21.38
2023-03-29T09:14:50.951Z,21.35
2023-03-29T09:15:51.004Z,21.43
2023-03-29T09:16:50.976Z,21.46
2023-03-29T09:17:51.165Z,21.48
2023-03-29T09:18:50.965Z,21.57
2023-03-29T09:19:50.927Z,21.62
2023-03-29T09:20:50.949Z,21.61
2023-03-29T09:21:50.920Z,21.65
2023-03-29T09:22:51.620Z,21.58
2023-03-29T09:23:51.022Z,21.61
2023-03-29T09:24:50.968Z,21.71
2023-03-29T09:25:53.446Z,21.71
2023-03-29T09:26:50.872Z,21.39
2023-03-29T09:27:51.182Z,21.25
2023-03-29T09:28:50.920Z,20.98
2023-03-29T09:29:50.914Z,20.93
2023-03-29T09:30:50.879Z,21.00
2023-03-29T09:31:50.931Z,20.48
2023-03-29T09:32:51.132Z,20.42
2023-03-29T09:33:51.135Z,20.65
2023-03-29T09:34:50.867Z,20.86
2023-03-29T09:35:50.869Z,20.81
2023-03-29T09:36:50.871Z,21.07
2023-03-29T09:37:50.803Z,20.94
2023-03-29T09:38:50.791Z,20.90
2023-03-29T09:39:50.800Z,21.30
2023-03-29T09:40:50.767Z,21.43
2023-03-29T09:41:50.768Z,21.39
2023-03-29T09:42:50.785Z,21.48
2023-03-29T09:43:50.764Z,21.62
2023-03-29T09:44:50.742Z,21.51
2023-03-29T09:45:50.800Z,21.53
2023-03-29T09:46:50.747Z,21.54
2023-03-29T09:47:50.788Z,21.59
2023-03-29T09:48:51.152Z,21.64
2023-03-29T09:49:50.717Z,21.73
2023-03-29T09:50:50.762Z,21.75
2023-03-29T09:51:50.715Z,21.73
2023-03-29T09:52:50.727Z,21.80
2023-03-29T09:53:51.115Z,21.80
2023-03-29T09:54:50.713Z,21.93
2023-03-29T09:55:50.748Z,21.89
2023-03-29T09:56:50.792Z,21.86
2023-03-29T09:57:50.701Z,21.95
2023-03-29T09:58:50.680Z,21.92
2023-03-29T09:59:50.668Z,21.89
2023-03-29T10:00:50.752Z,21.92
2023-03-29T10:01:50.679Z,21.90
2023-03-29T10:02:50.737Z,21.84
2023-03-29T10:03:51.174Z,21.80
2023-03-29T10:04:51.113Z,21.87
2023-03-29T10:05:50.633Z,21.87
2023-03-29T10:06:50.674Z,21.91
2023-03-29T10:07:50.623Z,21.89
2023-03-29T10:08:50.606Z,21.84
2023-03-29T10:09:50.630Z,21.72
2023-03-29T10:10:50.613Z,21.75
2023-03-29T10:11:50.628Z,21.38
2023-03-29T10:12:50.563Z,21.04
2023-03-29T10:13:50.626Z,20.56
2023-03-29T10:14:53.500Z,20.42
2023-03-29T10:15:50.540Z,20.63
2023-03-29T10:16:50.616Z,20.25
2023-03-29T10:17:50.558Z,20.21
2023-03-29T10:18:50.512Z,20.32
2023-03-29T10:19:50.651Z,20.96
2023-03-29T10:20:50.549Z,21.10
2023-03-29T10:21:50.477Z,21.05
2023-03-29T10:22:50.576Z,20.99
2023-03-29T10:23:50.544Z,21.04
2023-03-29T10:24:50.640Z,20.99
2023-03-29T10:25:50.456Z,20.91
2023-03-29T10:26:50.472Z,20.93
2023-03-29T10:27:50.458Z,20.97
2023-03-29T10:28:50.436Z,20.94
2023-03-29T10:29:50.452Z,20.88
2023-03-29T10:30:50.425Z,20.94
2023-03-29T10:31:50.510Z,20.88
2023-03-29T10:32:50.490Z,20.88
2023-03-29T10:33:50.404Z,20.91
2023-03-29T10:34:50.394Z,20.94
2023-03-29T10:35:50.448Z,20.79
2023-03-29T10:36:50.415Z,20.82
2023-03-29T10:37:50.388Z,20.83
2023-03-29T10:38:50.357Z,20.82
2023-03-29T10:39:50.377Z,20.80
2023-03-29T10:40:50.352Z,20.79
2023-03-29T10:41:50.385Z,20.70
2023-03-29T10:42:50.345Z,20.77
2023-03-29T10:43:50.345Z,20.70
2023-03-29T10:44:50.372Z,20.71
2023-03-29T10:45:50.376Z,20.62
2023-03-29T10:46:50.326Z,20.64
2023-03-29T10:47:50.369Z,20.65
2023-03-29T10:48:50.322Z,20.57
2023-03-29T10:49:51.067Z,20.50
2023-03-29T10:50:50.293Z,20.44
2023-03-29T10:51:50.312Z,20.31
2023-03-29T10:52:50.327Z,20.21
2023-03-29T10:53:50.273Z,20.15
2023-03-29T10:54:50.293Z,20.18
2023-03-29T10:55:50.259Z,20.12
2023-03-29T10:56:52.343Z,20.07
2023-03-29T10:57:50.296Z,20.28
2023-03-29T10:58:50.238Z,20.47
2023-03-29T10:59:50.691Z,20.53
2023-03-29T11:00:50.226Z,20.64
2023-03-29T11:01:50.275Z,20.57
2023-03-29T11:02:50.347Z,20.53
2023-03-29T11:03:50.273Z,20.50
2023-03-29T11:04:50.680Z,20.51
2023-03-29T11:05:50.211Z,20.47
2023-03-29T11:06:50.167Z,20.47
2023-03-29T11:07:50.234Z,20.48
2023-03-29T11:08:50.150Z,20.50
2023-03-29T11:09:50.159Z,20.49
2023-03-29T11:10:50.176Z,20.50
2023-03-29T11:11:51.583Z,20.44
2023-03-29T11:12:51.198Z,20.44
2023-03-29T11:13:50.185Z,20.46
2023-03-29T11:14:50.712Z,20.46
2023-03-29T11:15:50.740Z,20.43
2023-03-29T11:16:50.178Z,20.39
2023-03-29T11:17:50.194Z,20.37
2023-03-29T11:18:50.181Z,20.32
2023-03-29T11:19:50.144Z,20.34
2023-03-29T11:20:50.152Z,20.37
2023-03-29T11:21:50.193Z,20.32
2023-03-29T11:22:50.221Z,20.34
2023-03-29T11:23:50.278Z,20.32
2023-03-29T11:24:50.375Z,20.23
2023-03-29T11:25:50.498Z,20.25
2023-03-29T11:26:50.447Z,20.23
2023-03-29T11:27:50.502Z,20.27
2023-03-29T11:28:50.566Z,20.28
2023-03-29T11:29:50.641Z,20.25
2023-03-29T11:30:50.754Z,20.26
2023-03-29T11:31:50.811Z,20.21
2023-03-29T11:32:50.864Z,20.22
2023-03-29T11:33:50.836Z,20.17
2023-03-29T11:34:50.892Z,20.29
2023-03-29T11:35:51.027Z,20.13
2023-03-29T11:36:51.048Z,20.19
2023-03-29T11:37:51.215Z,20.13
2023-03-29T11:38:51.124Z,20.16
2023-03-29T11:39:51.191Z,20.14
2023-03-29T11:40:51.247Z,20.10
2023-03-29T11:41:51.315Z,20.09
2023-03-29T11:42:51.377Z,20.09
2023-03-29T11:43:51.454Z,20.06
2023-03-29T11:44:53.414Z,20.07
2023-03-29T11:45:51.500Z,20.03
2023-03-29T11:46:51.521Z,20.03
2023-03-29T11:47:51.491Z,20.09
2023-03-29T11:48:51.466Z,20.04
2023-03-29T11:49:51.471Z,20.03
2023-03-29T11:50:51.455Z,20.06
2023-03-29T11:51:51.442Z,20.08
2023-03-29T11:52:51.436Z,20.08
2023-03-29T11:53:51.416Z,20.05
2023-03-29T11:54:51.421Z,20.10
2023-03-29T11:55:51.684Z,20.10
2023-03-29T11:56:51.488Z,20.10
2023-03-29T11:57:51.676Z,20.08
2023-03-29T11:58:51.397Z,20.13
2023-03-29T11:59:51.393Z,20.13
2023-03-29T12:00:51.361Z,20.09
2023-03-29T12:01:51.386Z,20.16
2023-03-29T12:02:51.695Z,20.11
2023-03-29T12:03:51.444Z,20.08
2023-03-29T12:04:51.366Z,20.11
2023-03-29T12:05:51.354Z,20.11
2023-03-29T12:06:51.355Z,20.11
2023-03-29T12:07:51.325Z,20.11
2023-03-29T12:08:51.316Z,20.10
2023-03-29T12:09:51.316Z,20.10
2023-03-29T12:10:51.322Z,20.06
2023-03-29T12:11:51.309Z,20.08
2023-03-29T12:12:51.662Z,20.13
2023-03-29T12:13:51.273Z,20.08
2023-03-29T12:14:51.257Z,20.08
2023-03-29T12:15:51.271Z,20.05
2023-03-29T12:16:51.296Z,20.07
2023-03-29T12:17:51.302Z,20.08
2023-03-29T12:18:51.224Z,20.10
2023-03-29T12:19:51.239Z,20.11
2023-03-29T12:20:51.244Z,20.05
2023-03-29T12:21:51.273Z,20.08
2023-03-29T12:22:51.332Z,20.05
2023-03-29T12:23:51.361Z,20.11
2023-03-29T12:24:51.414Z,20.14
2023-03-29T12:25:51.485Z,20.14
2023-03-29T12:26:51.541Z,20.14
2023-03-29T12:27:51.603Z,20.13
2023-03-29T12:28:51.671Z,20.16
2023-03-29T12:29:51.697Z,20.14
2023-03-29T12:30:51.751Z,20.12
2023-03-29T12:31:51.850Z,20.14
2023-03-29T12:32:51.948Z,20.18
2023-03-29T12:33:51.942Z,20.16
2023-03-29T12:34:51.989Z,20.14
2023-03-29T12:35:52.105Z,20.18
2023-03-29T12:36:52.131Z,20.20
2023-03-29T12:37:52.146Z,20.18
2023-03-29T12:38:52.188Z,20.17
2023-03-29T12:39:52.243Z,20.21
2023-03-29T12:40:52.306Z,20.18
2023-03-29T12:41:52.366Z,20.18
2023-03-29T12:42:52.412Z,20.17
2023-03-29T12:43:52.496Z,20.18
2023-03-29T12:44:52.565Z,20.20
2023-03-29T12:45:52.925Z,20.20
2023-03-29T12:46:52.688Z,20.17
2023-03-29T12:47:52.753Z,20.20
2023-03-29T12:48:52.746Z,20.16
2023-03-29T12:49:52.792Z,20.22
2023-03-29T12:50:52.868Z,20.21
2023-03-29T12:51:52.922Z,20.21
2023-03-29T12:52:52.993Z,20.16